Time;durP1;ratioP1;P1;durP2;ratioP2;P2;SDS_P1;SDS_P2;PMS_P1;PMS_P2;Temp;Humidity;BMP_temperature;BMP_pressure;BME280_temperature;BME280_humidity;BME280_pressure;Samples;Min_cycle;Max_cycle;Signal;HPM_P1;HPM_P2
2023/09/07 00:00:43;;;;;;;0.10;0.10;;;;;;;10.54;66.40;100137.53;5048438;28;20041;-74
2023/09/07 00:03:09;;;;;;;0.10;0.10;;;;;;;10.51;66.39;100138.88;5064447;28;20045;-73
2023/09/07 00:05:35;;;;;;;0.10;0.10;;;;;;;10.53;66.89;100144.06;5062492;28;20048;-74
2023/09/07 00:08:02;;;;;;;0.10;0.10;;;;;;;10.45;67.15;100138.03;5031137;28;20427;-74
2023/09/07 00:10:28;;;;;;;0.10;0.10;;;;;;;10.44;67.40;100151.97;5048581;28;20144;-74
2023/09/07 00:12:54;;;;;;;0.00;0.00;;;;;;;10.44;67.59;100152.78;5062176;28;20044;-74
2023/09/07 00:15:23;;;;;;;0.10;0.10;;;;;;;10.42;67.62;100144.03;5041866;28;20122;-75
2023/09/07 00:17:51;;;;;;;0.10;0.10;;;;;;;10.36;67.68;100145.06;5061960;28;20461;-74
2023/09/07 00:20:19;;;;;;;0.00;0.00;;;;;;;10.36;67.61;100142.31;5059402;28;20072;-74
2023/09/07 00:22:45;;;;;;;0.10;0.10;;;;;;;10.35;67.38;100144.25;5065516;28;20053;-74
2023/09/07 00:25:12;;;;;;;0.00;0.00;;;;;;;10.39;67.36;100152.75;5062445;28;20059;-73
2023/09/07 00:27:38;;;;;;;0.10;0.10;;;;;;;10.35;67.86;100155.19;5063889;28;20576;-74
2023/09/07 00:30:05;;;;;;;0.00;0.00;;;;;;;10.32;68.06;100160.34;5063568;28;20048;-73
2023/09/07 00:32:35;;;;;;;0.17;0.10;;;;;;;10.27;68.36;100165.78;5059853;28;20052;-73
2023/09/07 00:35:02;;;;;;;0.00;0.00;;;;;;;10.23;68.26;100151.81;5062037;28;20044;-74
2023/09/07 00:37:32;;;;;;;0.00;0.00;;;;;;;10.25;68.66;100154.31;5045907;28;20056;-74
2023/09/07 00:39:59;;;;;;;0.10;0.10;;;;;;;10.19;68.92;100161.63;5062688;28;20055;-73
2023/09/07 00:42:26;;;;;;;0.10;0.10;;;;;;;10.19;69.67;100159.72;5059757;28;20053;-73
2023/09/07 00:44:53;;;;;;;0.10;0.10;;;;;;;10.17;69.85;100174.75;5064366;28;20041;-74
2023/09/07 00:47:20;;;;;;;0.10;0.10;;;;;;;10.16;70.01;100173.09;5063657;28;20098;-74
2023/09/07 00:49:48;;;;;;;0.10;0.10;;;;;;;10.13;69.94;100179.06;5062869;28;20044;-73
2023/09/07 00:52:16;;;;;;;0.08;0.08;;;;;;;10.08;69.85;100160.75;5047771;28;20098;-73
2023/09/07 00:54:42;;;;;;;0.10;0.10;;;;;;;10.13;69.35;100179.06;5060672;28;20041;-73
2023/09/07 00:57:09;;;;;;;0.10;0.10;;;;;;;10.11;69.83;100181.25;5061445;28;20044;-72
2023/09/07 00:59:36;;;;;;;0.10;0.10;;;;;;;10.07;70.04;100187.25;5056133;28;20040;-74
2023/09/07 01:02:05;;;;;;;0.10;0.10;;;;;;;10.04;70.57;100186.94;5045297;28;20135;-74
2023/09/07 01:04:32;;;;;;;0.10;0.10;;;;;;;9.99;70.89;100189.63;5059316;28;20045;-73
2023/09/07 01:07:02;;;;;;;;;;;;;;;9.99;70.90;100203.28;5032023;28;20064;-73
2023/09/07 01:09:32;;;;;;;0.10;0.10;;;;;;;9.93;70.83;100191.50;5041750;28;19925;-74
2023/09/07 01:11:58;;;;;;;0.10;0.10;;;;;;;9.97;71.21;100202.72;5060678;28;20055;-73
2023/09/07 01:14:24;;;;;;;0.10;0.10;;;;;;;9.97;71.72;100202.72;5045290;28;20077;-73
2023/09/07 01:16:51;;;;;;;0.10;0.10;;;;;;;9.96;72.01;100195.63;5063647;28;20076;-74
2023/09/07 01:19:17;;;;;;;0.10;0.10;;;;;;;9.93;72.55;100191.50;5055247;28;20040;-74
2023/09/07 01:21:46;;;;;;;0.03;0.03;;;;;;;9.86;73.03;100197.19;5057014;28;20049;-73
2023/09/07 01:24:15;;;;;;;0.10;0.10;;;;;;;9.78;74.02;100198.47;5060904;28;20048;-73
2023/09/07 01:26:42;;;;;;;0.10;0.10;;;;;;;9.75;74.14;100201.72;5040804;28;20068;-74
2023/09/07 01:29:09;;;;;;;0.00;0.00;;;;;;;9.73;74.96;100198.44;5045377;28;20048;-73
2023/09/07 01:31:37;;;;;;;0.10;0.10;;;;;;;9.72;74.99;100201.41;5045973;28;20045;-73
2023/09/07 01:34:06;;;;;;;0.10;0.10;;;;;;;9.65;75.60;100198.91;5043182;28;20147;-74
2023/09/07 01:36:33;;;;;;;0.10;0.10;;;;;;;9.68;75.63;100206.59;5064164;28;20052;-74
2023/09/07 01:39:04;;;;;;;0.00;0.00;;;;;;;9.67;75.70;100204.91;5044179;28;20052;-75
2023/09/07 01:41:30;;;;;;;0.10;0.10;;;;;;;9.62;76.19;100207.63;5043976;28;20052;-74
2023/09/07 01:43:57;;;;;;;0.10;0.10;;;;;;;9.62;76.41;100213.91;5059685;28;20052;-73
2023/09/07 01:46:24;;;;;;;0.10;0.10;;;;;;;9.60;76.55;100207.88;5060904;28;20049;-74
2023/09/07 01:48:50;;;;;;;0.10;0.10;;;;;;;9.57;76.75;100202.91;5044117;28;20063;-74
2023/09/07 01:51:17;;;;;;;0.10;0.10;;;;;;;9.58;77.15;100217.41;5059969;28;20057;-73
2023/09/07 01:53:43;;;;;;;0.10;0.10;;;;;;;9.50;77.45;100214.03;5058358;28;20422;-73
2023/09/07 01:56:11;;;;;;;0.03;0.03;;;;;;;9.55;77.77;100229.66;5063113;28;20056;-73
2023/09/07 01:58:37;;;;;;;0.00;0.00;;;;;;;9.51;77.50;100234.00;5062618;28;20072;-72
2023/09/07 02:01:04;;;;;;;0.00;0.00;;;;;;;9.47;78.21;100230.94;5046257;28;20054;-73
2023/09/07 02:03:30;;;;;;;0.10;0.10;;;;;;;9.53;78.16;100236.47;5063753;28;20044;-73
2023/09/07 02:05:56;;;;;;;0.03;0.03;;;;;;;9.50;78.40;100222.22;5060913;28;20135;-73
2023/09/07 02:08:23;;;;;;;0.00;0.00;;;;;;;9.55;78.31;100240.56;5046530;28;20052;-73
2023/09/07 02:10:49;;;;;;;0.10;0.10;;;;;;;9.54;78.43;100238.13;5066039;28;20048;-74
2023/09/07 02:13:17;;;;;;;0.10;0.10;;;;;;;9.51;78.48;100234.00;5062795;28;20044;-74
2023/09/07 02:15:43;;;;;;;0.10;0.10;;;;;;;9.49;78.79;100252.53;5045012;28;20075;-74
2023/09/07 02:18:10;;;;;;;0.10;0.10;;;;;;;9.45;79.01;100243.22;5058946;28;20041;-73
2023/09/07 02:20:37;;;;;;;0.10;0.10;;;;;;;9.42;79.14;100240.97;5062972;28;20049;-73
2023/09/07 02:23:03;;;;;;;0.08;0.08;;;;;;;9.45;78.99;100237.75;5056233;28;20044;-74
2023/09/07 02:25:30;;;;;;;0.00;0.00;;;;;;;9.42;78.83;100246.44;5058450;28;20060;-74
2023/09/07 02:27:57;;;;;;;0.05;0.05;;;;;;;9.39;79.09;100241.50;5039684;28;20297;-74
2023/09/07 02:30:25;;;;;;;0.10;0.10;;;;;;;9.34;79.40;100247.72;5064079;28;20142;-75
2023/09/07 02:32:53;;;;;;;0.05;0.05;;;;;;;9.32;79.30;100242.53;5059215;28;20162;-73
2023/09/07 02:35:20;;;;;;;0.10;0.10;;;;;;;9.27;79.30;100239.72;5058405;28;20098;-73
2023/09/07 02:37:47;;;;;;;0.10;0.10;;;;;;;9.17;79.62;100236.91;5058765;28;20076;-73
2023/09/07 02:40:15;;;;;;;0.10;0.10;;;;;;;9.17;79.86;100242.34;5062326;28;20045;-74
2023/09/07 02:42:42;;;;;;;0.10;0.10;;;;;;;9.15;80.76;100258.97;5044452;28;20565;-73
2023/09/07 02:45:11;;;;;;;0.03;0.03;;;;;;;9.11;80.91;100252.38;5061432;28;20075;-74
2023/09/07 02:47:40;;;;;;;0.10;0.10;;;;;;;9.14;80.45;100256.50;5062534;28;20676;-74
2023/09/07 02:50:07;;;;;;;0.00;0.00;;;;;;;9.13;80.31;100263.84;5060607;28;20052;-74
2023/09/07 02:52:33;;;;;;;0.08;0.08;;;;;;;9.14;80.14;100260.03;5059299;28;20082;-73
2023/09/07 02:55:00;;;;;;;0.10;0.10;;;;;;;9.15;80.10;100267.16;5059233;28;20060;-73
2023/09/07 02:57:27;;;;;;;0.00;0.00;;;;;;;9.12;80.41;100270.38;5023779;28;20051;-73
2023/09/07 02:59:53;;;;;;;0.00;0.00;;;;;;;9.14;80.24;100270.97;5058124;28;20050;-73
2023/09/07 03:02:20;;;;;;;0.10;0.10;;;;;;;9.11;80.22;100263.28;5055644;28;20105;-73
2023/09/07 03:04:47;;;;;;;0.10;0.10;;;;;;;9.10;80.38;100272.56;5059207;28;20037;-73
2023/09/07 03:07:14;;;;;;;0.10;0.10;;;;;;;9.13;80.11;100276.66;5060329;28;20040;-73
2023/09/07 03:09:40;;;;;;;0.10;0.10;;;;;;;9.08;80.05;100274.72;5043002;28;20102;-73
2023/09/07 03:12:07;;;;;;;0.10;0.10;;;;;;;9.17;80.42;100284.09;5061093;28;20040;-73
2023/09/07 03:14:33;;;;;;;0.10;0.10;;;;;;;9.19;79.87;100281.94;5043159;28;20139;-73
2023/09/07 03:17:03;;;;;;;0.10;0.10;;;;;;;9.21;80.13;100290.72;5061828;28;20052;-73
2023/09/07 03:19:30;;;;;;;0.10;0.10;;;;;;;9.20;80.73;100290.94;5045735;28;20600;-74
2023/09/07 03:22:00;;;;;;;0.10;0.10;;;;;;;9.21;80.30;100293.44;5044644;28;20071;-74
2023/09/07 03:24:28;;;;;;;0.10;0.10;;;;;;;9.27;79.63;100286.09;5045005;28;20099;-73
2023/09/07 03:26:55;;;;;;;0.10;0.10;;;;;;;9.29;79.24;100294.91;5059738;28;20059;-73
2023/09/07 03:29:21;;;;;;;0.10;0.10;;;;;;;9.34;78.89;100300.41;5040320;28;20098;-73
2023/09/07 03:31:49;;;;;;;0.10;0.10;;;;;;;9.38;78.97;100299.88;5063106;28;20044;-73
2023/09/07 03:34:15;;;;;;;0.10;0.10;;;;;;;9.40;78.80;100304.03;5059909;28;20047;-74
2023/09/07 03:36:42;;;;;;;0.00;0.00;;;;;;;9.41;78.79;100304.84;5039192;28;20045;-74
2023/09/07 03:39:09;;;;;;;0.15;0.10;;;;;;;9.43;79.62;100319.88;5059283;28;20060;-73
2023/09/07 03:41:36;;;;;;;0.10;0.10;;;;;;;9.45;79.68;100306.81;5042188;28;20466;-73
2023/09/07 03:44:02;;;;;;;0.10;0.10;;;;;;;9.55;80.04;100316.22;5059474;28;20074;-74
2023/09/07 03:46:29;;;;;;;0.10;0.10;;;;;;;9.61;80.54;100316.00;5056325;28;20044;-74
2023/09/07 03:48:56;;;;;;;0.10;0.10;;;;;;;9.69;80.23;100313.88;5061974;28;20045;-73
2023/09/07 03:51:22;;;;;;;0.10;0.10;;;;;;;9.71;80.01;100325.38;5058577;28;20057;-73
2023/09/07 03:53:48;;;;;;;0.10;0.10;;;;;;;9.80;79.24;100321.13;5055425;28;20500;-74
2023/09/07 03:56:16;;;;;;;0.10;0.10;;;;;;;9.84;77.96;100326.91;5060803;28;20101;-74
2023/09/07 03:58:43;;;;;;;0.10;0.10;;;;;;;9.89;77.91;100326.94;5058184;28;20518;-76
2023/09/07 04:01:09;;;;;;;0.10;0.10;;;;;;;9.93;76.89;100328.06;5061090;28;20507;-75
2023/09/07 04:03:35;;;;;;;0.10;0.10;;;;;;;9.97;77.09;100331.94;5058529;28;20135;-75
2023/09/07 04:06:02;;;;;;;0.10;0.10;;;;;;;10.02;76.61;100326.53;5063111;28;20050;-74
2023/09/07 04:08:28;;;;;;;0.10;0.10;;;;;;;10.07;76.32;100325.78;5059266;28;20309;-73
2023/09/07 04:10:55;;;;;;;0.10;0.10;;;;;;;10.06;75.85;100322.19;5063744;28;20044;-74
2023/09/07 04:13:23;;;;;;;0.10;0.10;;;;;;;10.15;75.51;100336.22;5031438;28;20051;-74
2023/09/07 04:15:49;;;;;;;0.10;0.10;;;;;;;10.19;75.31;100339.25;5067426;28;20509;-74
2023/09/07 04:18:16;;;;;;;0.08;0.08;;;;;;;10.27;74.17;100340.69;5065125;28;20036;-74
2023/09/07 04:20:43;;;;;;;0.10;0.10;;;;;;;10.32;74.23;100341.56;5065736;28;20475;-74
2023/09/07 04:23:11;;;;;;;0.10;0.10;;;;;;;10.36;73.84;100342.69;5048306;28;20041;-75
2023/09/07 04:25:40;;;;;;;0.10;0.10;;;;;;;10.42;73.57;100346.31;5049170;28;20130;-75
2023/09/07 04:28:08;;;;;;;0.10;0.10;;;;;;;10.42;73.74;100340.03;5061035;28;20115;-74
2023/09/07 04:30:39;;;;;;;0.10;0.10;;;;;;;10.50;73.56;100345.84;5055944;28;20566;-74
2023/09/07 04:33:05;;;;;;;0.10;0.10;;;;;;;10.57;72.76;100348.34;5070051;28;20505;-74
2023/09/07 04:35:33;;;;;;;0.10;0.10;;;;;;;10.63;72.14;100355.53;5073373;28;20060;-75
2023/09/07 04:37:59;;;;;;;0.10;0.10;;;;;;;10.71;72.49;100358.84;5068779;28;20060;-75
2023/09/07 04:40:26;;;;;;;0.38;0.10;;;;;;;10.75;72.01;100360.81;5072008;28;20083;-75
2023/09/07 04:42:52;;;;;;;0.10;0.10;;;;;;;10.80;70.79;100360.03;5067881;28;20063;-75
2023/09/07 04:45:18;;;;;;;0.10;0.10;;;;;;;10.78;71.28;100354.81;5046560;28;20051;-75
2023/09/07 04:47:46;;;;;;;0.10;0.10;;;;;;;10.83;70.56;100362.22;5045073;28;20036;-73
2023/09/07 04:50:13;;;;;;;0.10;0.10;;;;;;;10.81;70.71;100360.84;5031627;28;20049;-74
2023/09/07 04:52:40;;;;;;;0.10;0.10;;;;;;;10.86;70.49;100367.16;5060063;28;20067;-74
2023/09/07 04:55:07;;;;;;;0.10;0.10;;;;;;;10.82;70.75;100368.78;5064094;28;20375;-74
2023/09/07 04:57:36;;;;;;;0.10;0.10;;;;;;;10.88;70.89;100370.47;5065893;28;20314;-74
2023/09/07 05:00:04;;;;;;;0.10;0.10;;;;;;;10.99;70.11;100373.28;5063009;28;20098;-74
2023/09/07 05:02:31;;;;;;;0.20;0.20;;;;;;;11.02;70.22;100381.78;5064433;28;20097;-74
2023/09/07 05:04:59;;;;;;;0.10;0.10;;;;;;;10.99;70.25;100356.84;5059221;28;20075;-75
2023/09/07 05:07:25;;;;;;;0.10;0.10;;;;;;;11.15;68.64;100375.03;5024360;28;20054;-75
2023/09/07 05:09:53;;;;;;;0.10;0.10;;;;;;;11.23;68.40;100383.81;5059284;28;20041;-75
2023/09/07 05:12:20;;;;;;;0.15;0.15;;;;;;;11.24;68.52;100388.19;5062529;28;20052;-75
2023/09/07 05:14:47;;;;;;;0.20;0.20;;;;;;;11.29;68.97;100386.31;5063900;28;20052;-74
2023/09/07 05:17:13;;;;;;;0.10;0.10;;;;;;;11.36;68.86;100388.81;5067608;28;20048;-73
2023/09/07 05:19:40;;;;;;;0.32;0.20;;;;;;;11.29;68.16;100358.13;5064600;28;20063;-73
2023/09/07 05:22:08;;;;;;;0.10;0.10;;;;;;;11.47;67.41;100389.69;5046272;28;20052;-73
2023/09/07 05:24:37;;;;;;;0.10;0.10;;;;;;;11.50;67.61;100383.69;5064228;28;20052;-74
2023/09/07 05:27:04;;;;;;;0.10;0.10;;;;;;;11.55;67.72;100388.34;5048007;28;20777;-75
2023/09/07 05:29:30;;;;;;;0.52;0.10;;;;;;;11.57;67.45;100377.97;5054372;28;20044;-74
2023/09/07 05:31:56;;;;;;;0.10;0.10;;;;;;;11.58;67.01;100374.16;5050624;28;20045;-75
2023/09/07 05:34:24;;;;;;;0.13;0.13;;;;;;;11.57;66.41;100380.72;5046701;28;20194;-73
2023/09/07 05:36:50;;;;;;;0.10;0.10;;;;;;;11.53;66.35;100379.56;5047277;28;20059;-74
2023/09/07 05:39:23;;;;;;;0.10;0.10;;;;;;;11.52;66.83;100395.19;5047427;28;20059;-73
2023/09/07 05:41:51;;;;;;;0.10;0.10;;;;;;;11.63;67.22;100379.63;5046550;28;20463;-74
2023/09/07 05:44:18;;;;;;;0.13;0.13;;;;;;;11.85;66.12;100376.69;5051086;28;20075;-74
2023/09/07 05:46:44;;;;;;;0.10;0.10;;;;;;;12.16;65.94;100389.69;5056762;28;20048;-74
2023/09/07 05:49:10;;;;;;;0.10;0.10;;;;;;;12.42;64.89;100389.72;5066057;28;20109;-73
2023/09/07 05:51:37;;;;;;;0.20;0.20;;;;;;;12.58;64.22;100377.66;5063646;28;20053;-73
2023/09/07 05:54:04;;;;;;;0.22;0.22;;;;;;;12.67;63.81;100390.84;5059134;28;20534;-73
2023/09/07 05:56:33;;;;;;;0.20;0.20;;;;;;;12.80;63.26;100387.56;5058130;28;20040;-73
2023/09/07 05:58:59;;;;;;;0.20;0.20;;;;;;;12.87;63.02;100393.56;5059618;28;20041;-73
2023/09/07 06:01:26;;;;;;;0.20;0.20;;;;;;;12.94;62.35;100395.19;5065134;28;20052;-74
2023/09/07 06:03:52;;;;;;;0.20;0.20;;;;;;;13.05;62.14;100396.84;5044810;28;20072;-74
2023/09/07 06:06:18;;;;;;;0.20;0.20;;;;;;;13.10;61.64;100390.53;5062747;28;20074;-74
2023/09/07 06:08:44;;;;;;;0.20;0.20;;;;;;;13.11;61.15;100395.75;5061962;28;20040;-74
2023/09/07 06:11:10;;;;;;;0.20;0.20;;;;;;;13.08;61.30;100395.47;5067193;28;20051;-74
2023/09/07 06:13:39;;;;;;;0.10;0.10;;;;;;;13.03;61.23;100401.78;5060428;28;20206;-74
2023/09/07 06:16:05;;;;;;;0.20;0.20;;;;;;;13.15;61.17;100407.81;5063046;28;20398;-74
2023/09/07 06:18:32;;;;;;;0.10;0.10;;;;;;;13.18;60.75;100399.00;5062321;28;20065;-73
2023/09/07 06:20:58;;;;;;;0.20;0.20;;;;;;;13.21;60.81;100411.38;5060492;28;20040;-75
2023/09/07 06:23:24;;;;;;;0.10;0.10;;;;;;;13.29;60.27;100404.50;5062784;28;20076;-75
2023/09/07 06:25:51;;;;;;;0.10;0.10;;;;;;;13.11;60.50;100403.16;5061458;28;20131;-74
2023/09/07 06:28:17;;;;;;;0.15;0.15;;;;;;;12.88;61.34;100411.69;5045011;28;20048;-75
2023/09/07 06:30:45;;;;;;;0.10;0.10;;;;;;;12.90;61.69;100414.97;5045621;28;20529;-75
2023/09/07 06:33:12;;;;;;;0.38;0.20;;;;;;;13.00;61.37;100414.13;5045458;28;20498;-73
2023/09/07 06:35:39;;;;;;;0.20;0.20;;;;;;;13.02;61.72;100413.88;5046611;28;20140;-74
2023/09/07 06:38:05;;;;;;;0.20;0.20;;;;;;;13.28;60.57;100431.13;5060355;28;20230;-74
2023/09/07 06:40:31;;;;;;;0.30;0.30;;;;;;;13.62;59.56;100424.19;5065011;28;20054;-74
2023/09/07 06:42:58;;;;;;;0.20;0.20;;;;;;;14.09;58.10;100435.00;5065463;28;20144;-74
2023/09/07 06:45:26;;;;;;;0.10;0.10;;;;;;;14.22;56.81;100420.63;5048499;28;20048;-73
2023/09/07 06:47:54;;;;;;;;;;;;;;;13.96;56.77;100423.50;5047336;28;20040;-74
2023/09/07 06:50:23;;;;;;;0.20;0.20;;;;;;;13.53;57.28;100398.41;5061402;28;19928;-74
2023/09/07 06:52:51;;;;;;;0.10;0.10;;;;;;;13.59;56.78;100419.28;5042936;28;20059;-75
2023/09/07 06:55:17;;;;;;;;;;;;;;;13.50;57.55;100421.75;5065049;28;20048;-74
2023/09/07 06:57:44;;;;;;;;;;;;;;;13.67;56.84;100428.88;5067126;28;19977;-74
2023/09/07 07:00:12;;;;;;;0.10;0.10;;;;;;;13.76;55.64;100413.41;5043258;28;19937;-74
2023/09/07 07:02:39;;;;;;;0.30;0.30;;;;;;;13.88;55.23;100433.16;5047229;28;20079;-74
2023/09/07 07:05:08;;;;;;;0.20;0.20;;;;;;;14.38;54.17;100423.28;5046523;28;20515;-74
2023/09/07 07:07:35;;;;;;;0.20;0.20;;;;;;;14.80;52.52;100419.13;5048438;28;20054;-73
2023/09/07 07:10:03;;;;;;;0.20;0.20;;;;;;;15.08;52.02;100424.13;5041554;28;20056;-74
2023/09/07 07:12:34;;;;;;;0.30;0.30;;;;;;;15.51;50.84;100429.72;5038576;28;20361;-74
2023/09/07 07:15:02;;;;;;;0.30;0.30;;;;;;;15.73;49.86;100445.75;5042606;28;20044;-74
2023/09/07 07:17:31;;;;;;;0.20;0.20;;;;;;;16.03;49.33;100440.19;5053486;28;20041;-74
2023/09/07 07:19:57;;;;;;;0.30;0.30;;;;;;;16.33;48.40;100442.81;5064998;28;20048;-74
2023/09/07 07:22:26;;;;;;;0.30;0.30;;;;;;;16.65;47.77;100428.25;5059436;28;20332;-74
2023/09/07 07:24:52;;;;;;;0.30;0.30;;;;;;;16.81;46.91;100445.38;5064055;28;20070;-74
2023/09/07 07:27:21;;;;;;;0.30;0.30;;;;;;;16.91;47.04;100436.09;5044819;28;20041;-75
2023/09/07 07:29:47;;;;;;;0.20;0.20;;;;;;;16.90;47.03;100439.19;5026837;28;20115;-74
2023/09/07 07:32:14;;;;;;;0.52;0.30;;;;;;;16.97;47.39;100437.66;5035369;28;20136;-75
2023/09/07 07:34:41;;;;;;;0.30;0.30;;;;;;;17.31;46.02;100435.69;5048222;28;20053;-74
2023/09/07 07:37:08;;;;;;;0.20;0.20;;;;;;;17.52;45.52;100441.66;5040393;28;20106;-75
2023/09/07 07:39:36;;;;;;;0.30;0.30;;;;;;;17.63;45.20;100433.97;5053382;28;20068;-75
2023/09/07 07:42:04;;;;;;;0.30;0.30;;;;;;;17.63;44.79;100438.72;5043353;28;20046;-75
2023/09/07 07:44:31;;;;;;;0.40;0.40;;;;;;;16.71;46.15;100448.31;5058992;28;20094;-75
2023/09/07 07:46:57;;;;;;;0.30;0.30;;;;;;;16.81;46.19;100441.81;5048151;28;20139;-75
2023/09/07 07:49:24;;;;;;;0.20;0.20;;;;;;;16.36;45.93;100442.19;5067831;28;20295;-74
2023/09/07 07:51:53;;;;;;;0.40;0.30;;;;;;;15.92;47.08;100447.78;5049196;28;20143;-73
2023/09/07 07:54:22;;;;;;;0.38;0.38;;;;;;;16.22;46.60;100436.63;5063948;28;20060;-73
2023/09/07 07:56:50;;;;;;;0.30;0.30;;;;;;;16.70;45.31;100438.38;5060128;28;20041;-74
2023/09/07 07:59:17;;;;;;;0.38;0.38;;;;;;;17.57;43.74;100426.94;5061097;28;20040;-74
2023/09/07 08:01:44;;;;;;;0.47;0.30;;;;;;;18.05;42.70;100439.53;5029725;28;20047;-74
2023/09/07 08:04:11;;;;;;;0.30;0.30;;;;;;;18.55;41.03;100435.09;5047804;28;20105;-74
2023/09/07 08:06:37;;;;;;;0.40;0.40;;;;;;;18.29;41.62;100430.16;5068934;28;20518;-75
2023/09/07 08:09:04;;;;;;;0.30;0.30;;;;;;;18.16;41.67;100433.75;5048756;28;20052;-74
2023/09/07 08:11:30;;;;;;;0.30;0.30;;;;;;;17.97;41.88;100427.22;5063468;28;20127;-75
2023/09/07 08:13:58;;;;;;;0.40;0.40;;;;;;;18.42;40.96;100409.91;5052891;28;20048;-74
2023/09/07 08:16:25;;;;;;;0.40;0.40;;;;;;;19.24;39.76;100424.81;5070832;28;20051;-74
2023/09/07 08:18:52;;;;;;;0.40;0.30;;;;;;;19.11;40.22;100421.81;5053027;28;20044;-74
2023/09/07 08:21:18;;;;;;;0.30;0.30;;;;;;;19.02;39.69;100420.13;5066296;28;20075;-74
2023/09/07 08:23:45;;;;;;;0.40;0.40;;;;;;;18.89;39.50;100424.56;5056127;28;20043;-73
2023/09/07 08:26:14;;;;;;;0.40;0.40;;;;;;;19.45;38.33;100411.22;5070986;28;20098;-74
2023/09/07 08:28:46;;;;;;;0.40;0.40;;;;;;;19.67;38.16;100424.19;5049961;28;20072;-74
2023/09/07 08:31:20;;;;;;;0.40;0.40;;;;;;;19.26;39.19;100420.56;5045715;28;20412;-74
2023/09/07 08:33:50;;;;;;;0.50;0.50;;;;;;;19.50;39.37;100419.38;5056141;28;20048;-74
2023/09/07 08:36:17;;;;;;;0.32;0.32;;;;;;;20.51;37.28;100434.44;5057086;28;20049;-74
2023/09/07 08:38:44;;;;;;;0.30;0.30;;;;;;;19.72;37.73;100412.09;5053811;28;20041;-73
2023/09/07 08:41:11;;;;;;;0.30;0.30;;;;;;;18.79;39.50;100404.31;5028864;28;20091;-74
2023/09/07 08:43:48;;;;;;;0.30;0.30;;;;;;;18.14;39.17;100412.75;5067962;28;20044;-73
2023/09/07 08:46:20;;;;;;;0.30;0.30;;;;;;;17.56;40.51;100403.19;5057700;28;20056;-73
2023/09/07 08:48:49;;;;;;;0.30;0.30;;;;;;;17.78;39.44;100407.97;5048982;28;20053;-73
2023/09/07 08:51:17;;;;;;;0.50;0.50;;;;;;;18.68;37.18;100400.16;5052786;28;20129;-73
2023/09/07 08:53:46;;;;;;;0.50;0.50;;;;;;;19.47;34.84;100383.16;5055009;28;20081;-73
2023/09/07 08:56:13;;;;;;;0.50;0.50;;;;;;;20.23;33.97;100397.88;5050838;28;20122;-74
2023/09/07 08:58:42;;;;;;;0.30;0.30;;;;;;;19.65;35.18;100403.44;5058551;28;20060;-73
2023/09/07 09:01:08;;;;;;;0.30;0.30;;;;;;;18.56;37.44;100412.63;5056440;28;20056;-73
2023/09/07 09:03:36;;;;;;;0.63;0.43;;;;;;;18.00;38.72;100392.56;5049451;28;20075;-74
2023/09/07 09:06:06;;;;;;;0.52;0.52;;;;;;;18.16;38.24;100418.00;5049633;28;20130;-74
2023/09/07 09:08:42;;;;;;;0.50;0.50;;;;;;;18.97;36.68;100410.78;5035893;28;20049;-75
2023/09/07 09:11:09;;;;;;;0.50;0.50;;;;;;;19.82;34.95;100402.66;5050627;28;20049;-73
2023/09/07 09:13:35;;;;;;;0.30;0.30;;;;;;;20.29;33.64;100404.06;5058918;28;20056;-74
2023/09/07 09:16:02;;;;;;;0.50;0.50;;;;;;;19.79;34.09;100386.66;5057849;28;20114;-73
2023/09/07 09:18:28;;;;;;;0.30;0.30;;;;;;;19.34;34.94;100409.84;5029494;28;20052;-74
2023/09/07 09:20:58;;;;;;;0.40;0.40;;;;;;;19.10;35.30;100400.78;5050092;28;20050;-74
2023/09/07 09:23:31;;;;;;;0.57;0.57;;;;;;;18.99;35.66;100418.81;5030068;28;20041;-73
2023/09/07 09:25:57;;;;;;;0.77;0.60;;;;;;;19.11;34.98;100409.91;5061008;28;20044;-74
2023/09/07 09:28:26;;;;;;;0.60;0.60;;;;;;;19.56;33.92;100409.78;5058343;28;20044;-73
2023/09/07 09:30:52;;;;;;;0.40;0.40;;;;;;;20.18;33.94;100407.16;5049848;28;20040;-74
2023/09/07 09:33:19;;;;;;;0.70;0.70;;;;;;;20.37;33.13;100414.34;5069353;28;20325;-74
2023/09/07 09:35:47;;;;;;;0.50;0.50;;;;;;;20.68;32.01;100405.03;5063422;28;20064;-74
2023/09/07 09:38:14;;;;;;;0.60;0.60;;;;;;;20.76;31.66;100395.03;5024319;28;20052;-73
2023/09/07 09:40:41;;;;;;;0.50;0.50;;;;;;;20.51;31.83;100403.06;5049265;28;20055;-74
2023/09/07 09:43:08;;;;;;;0.40;0.30;;;;;;;20.27;32.19;100388.53;5049880;28;20044;-74
2023/09/07 09:45:35;;;;;;;0.30;0.30;;;;;;;19.69;33.47;100405.25;5049268;28;20075;-73
2023/09/07 09:48:04;;;;;;;0.30;0.30;;;;;;;18.89;34.16;100410.72;5037843;28;20055;-74
2023/09/07 09:50:31;;;;;;;0.25;0.25;;;;;;;18.08;35.96;100399.34;5048067;28;20082;-74
2023/09/07 09:52:59;;;;;;;0.20;0.20;;;;;;;17.42;37.09;100400.44;5048572;28;20424;-73
2023/09/07 09:55:28;;;;;;;0.30;0.30;;;;;;;17.00;38.28;100406.72;5049605;28;20057;-73
2023/09/07 09:57:57;;;;;;;0.30;0.30;;;;;;;16.86;38.26;100405.81;5034117;28;20565;-73
2023/09/07 10:00:28;;;;;;;0.50;0.50;;;;;;;17.88;36.51;100406.13;5068429;28;20041;-73
2023/09/07 10:03:02;;;;;;;0.30;0.30;;;;;;;19.64;33.56;100402.63;5065275;28;20593;-74
2023/09/07 10:05:30;;;;;;;0.30;0.30;;;;;;;19.30;33.93;100406.09;5065544;28;20040;-74
2023/09/07 10:08:05;;;;;;;0.30;0.30;;;;;;;18.61;34.89;100397.03;5049146;28;20076;-74
2023/09/07 10:10:36;;;;;;;0.30;0.30;;;;;;;18.14;35.59;100410.00;5049079;28;20053;-73
2023/09/07 10:13:04;;;;;;;0.57;0.30;;;;;;;17.80;37.03;100400.19;5048651;28;20044;-74
2023/09/07 10:15:31;;;;;;;0.50;0.50;;;;;;;18.12;36.95;100406.72;5067674;28;20318;-72
2023/09/07 10:18:07;;;;;;;;;;;;;;;20.38;33.34;100393.78;5061100;28;20127;-74
2023/09/07 10:20:55;;;;;;;0.60;0.60;;;;;;;22.93;29.67;100400.81;5048706;28;19938;-74
2023/09/07 10:23:26;;;;;;;0.30;0.30;;;;;;;23.82;27.38;100394.97;5030664;28;20053;-75
2023/09/07 10:25:55;;;;;;;0.30;0.30;;;;;;;22.36;28.83;100394.78;5047931;28;20055;-74
2023/09/07 10:28:22;;;;;;;0.30;0.30;;;;;;;20.78;31.35;100385.25;5040664;28;20049;-74
2023/09/07 10:31:03;;;;;;;;;;;;;;;19.82;33.08;100386.84;5051572;28;20049;-74
2023/09/07 10:33:29;;;;;;;0.55;0.55;;;;;;;19.92;32.68;100390.50;5056713;28;19924;-74
2023/09/07 10:35:56;;;;;;;0.55;0.40;;;;;;;20.39;31.93;100401.78;5048029;28;20508;-74
2023/09/07 10:38:24;;;;;;;0.50;0.50;;;;;;;21.42;31.13;100393.09;5056553;28;20041;-74
2023/09/07 10:40:57;;;;;;;0.50;0.50;;;;;;;23.26;28.99;100396.41;5025942;28;20091;-74
2023/09/07 10:43:24;;;;;;;0.70;0.70;;;;;;;24.76;26.56;100400.56;5056547;28;20051;-74
2023/09/07 10:45:50;;;;;;;0.60;0.60;;;;;;;25.68;24.85;100390.53;5054648;28;20512;-74
2023/09/07 10:48:17;;;;;;;0.70;0.70;;;;;;;25.80;24.84;100391.56;5064405;28;20053;-74
2023/09/07 10:50:44;;;;;;;0.70;0.70;;;;;;;25.79;24.12;100382.38;5045765;28;20310;-74
2023/09/07 10:53:11;;;;;;;;;;;;;;;25.92;23.83;100385.84;5057188;28;20081;-74
2023/09/07 10:55:40;;;;;;;0.80;0.80;;;;;;;26.53;23.23;100391.13;5032452;28;19924;-74
2023/09/07 10:58:09;;;;;;;0.80;0.80;;;;;;;26.96;22.96;100377.97;5067087;28;20428;-74
2023/09/07 11:00:35;;;;;;;0.47;0.47;;;;;;;27.02;22.89;100378.47;5067084;28;20076;-74
2023/09/07 11:03:08;;;;;;;0.90;0.90;;;;;;;26.99;23.05;100382.03;5060408;28;20048;-74
2023/09/07 11:05:36;;;;;;;1.00;1.00;;;;;;;27.73;22.47;100382.84;5061837;28;20051;-75
2023/09/07 11:08:04;;;;;;;1.08;1.08;;;;;;;28.65;20.50;100375.19;5061479;28;20518;-74
2023/09/07 11:10:33;;;;;;;0.45;0.45;;;;;;;27.57;20.77;100388.63;5068050;28;20068;-74
2023/09/07 11:13:02;;;;;;;0.73;0.60;;;;;;;25.42;23.71;100379.84;5067197;28;20063;-74
2023/09/07 11:15:32;;;;;;;1.10;1.10;;;;;;;25.90;23.35;100377.78;5058160;28;20048;-74
2023/09/07 11:17:58;;;;;;;1.10;1.10;;;;;;;26.55;22.26;100374.78;5061209;28;20676;-74
2023/09/07 11:20:25;;;;;;;0.40;0.40;;;;;;;26.19;22.20;100374.84;5048441;28;20088;-74
2023/09/07 11:22:52;;;;;;;0.40;0.40;;;;;;;24.38;24.36;100387.06;5050438;28;20127;-74
2023/09/07 11:25:19;;;;;;;1.15;1.10;;;;;;;23.68;25.50;100373.03;5046796;28;20049;-75
2023/09/07 11:27:45;;;;;;;1.17;1.15;;;;;;;25.02;24.04;100376.88;5052463;28;20045;-75
2023/09/07 11:30:12;;;;;;;1.20;1.10;;;;;;;26.18;22.33;100379.63;5057983;28;20419;-75